Albers, Illinois
Current Conditions -  °F | °C
As of 12:58 AM on Friday 31 Oct 2014 (Local Time) from KBLV Reporting Station
Overcast Overcast  
Wind Chill: 47°   Ceiling: 3600
Heat Index: 49°   Visibility: 10mi
Dew Point: 48°   Wind: 5mph
Humidity: 98%   Direction: 320°NW
Pressure: 30.04"   Gusts: NA
Location:  38.54°N, 89.61°W
Report Text: KBLV 310558Z AUTO 32004KT 10SM OVC036 09/09 A3004 RMK AO2 SLP176 60000 T00940091 10118 20090 401580012 53003
Loading
Personal Weather Stations






























Interactive Weather Map
Tropical Storm Tracking
New forecast layout! Learn more

10-Day Weather Forecast

Advertisements
Track Severe Weather on mobile